Atuona, French Polynesia
Current Conditions -  °F | °C
As of 9:00 AM on Thursday 18 Dec 2014 (Local Time) from NTAA Reporting Station
Rain Showers Rain Showers  
Wind Chill: 79°   Ceiling: 13000
Heat Index: 82°   Visibility: 6mi
Dew Point: 73°   Wind: 13mph
Humidity: 83%   Direction: 60°ENE
Pressure: 29.83"   Gusts: NA
Location:  9.79°S, 139.02°W
Report Text: NTAA 181800Z 06011KT 030V090 9999 VCSH FEW016 BKN130 BKN25026/23 Q1010 TEMPO 02015G25KT 3000 SHRA BKN016TCU BKN040
Loading
Personal Weather Stations






























Interactive Weather Map New forecast layout! Learn more

10-Day Weather Forecast

Advertisements
Track Severe Weather on mobile